Time;durP1;ratioP1;P1;durP2;ratioP2;P2;SDS_P1;SDS_P2;PMS_P1;PMS_P2;Temp;Humidity;BMP_temperature;BMP_pressure;BME280_temperature;BME280_humidity;BME280_pressure;Samples;Min_cycle;Max_cycle;Signal;HPM_P1;HPM_P2
2022/06/09 00:00:58;;;;;;;14.00;13.50;;;;;;;;;;5112853;28;20196;-72
2022/06/09 00:03:27;;;;;;;13.45;13.05;;;;;;;;;;5112517;28;20246;-71
2022/06/09 00:05:54;;;;;;;13.80;13.30;;;;;;;;;;5112453;28;20663;-72
2022/06/09 00:08:22;;;;;;;14.00;13.50;;;;;;;;;;5112781;28;20651;-79
2022/06/09 00:10:51;;;;;;;13.15;12.75;;;;;;;;;;5112369;28;20225;-73
2022/06/09 00:13:20;;;;;;;14.20;13.70;;;;;;;;;;5112415;28;20235;-73
2022/06/09 00:15:47;;;;;;;14.48;13.98;;;;;;;;;;5112444;28;20197;-72
2022/06/09 00:18:14;;;;;;;15.15;14.65;;;;;;;;;;5112153;28;20252;-72
2022/06/09 00:20:41;;;;;;;15.85;15.25;;;;;;;;;;5112328;28;20280;-72
2022/06/09 00:23:08;;;;;;;15.13;14.63;;;;;;;;;;5112359;28;20258;-78
2022/06/09 00:25:35;;;;;;;14.48;13.98;;;;;;;;;;5112614;28;20197;-77
2022/06/09 00:28:02;;;;;;;14.30;13.80;;;;;;;;;;5112346;28;20196;-72
2022/06/09 00:30:31;;;;;;;14.38;13.88;;;;;;;;;;5116337;28;20225;-71
2022/06/09 00:32:58;;;;;;;14.80;14.30;;;;;;;;;;5116680;28;20205;-72
2022/06/09 00:35:25;;;;;;;14.48;13.98;;;;;;;;;;5116694;28;20337;-72
2022/06/09 00:37:52;;;;;;;13.90;13.40;;;;;;;;;;5116315;28;20193;-72
2022/06/09 00:40:19;;;;;;;13.70;13.20;;;;;;;;;;5116264;28;20212;-72
2022/06/09 00:42:46;;;;;;;13.70;13.30;;;;;;;;;;5116197;28;20228;-71
2022/06/09 00:45:23;;;;;;;14.88;14.38;;;;;;;;;;5116131;28;20280;-71
2022/06/09 00:47:52;;;;;;;14.27;13.77;;;;;;;;;;5116126;28;20236;-71
2022/06/09 00:50:21;;;;;;;14.45;13.95;;;;;;;;;;5115939;28;20229;-71
2022/06/09 00:52:49;;;;;;;13.98;13.48;;;;;;;;;;5116037;28;20207;-72
2022/06/09 00:55:18;;;;;;;14.40;13.90;;;;;;;;;;5115892;28;20201;-72
2022/06/09 00:57:47;;;;;;;15.27;14.77;;;;;;;;;;5115913;28;20606;-71
2022/06/09 01:00:17;;;;;;;15.30;14.80;;;;;;;;;;5115877;28;20229;-71
2022/06/09 01:02:45;;;;;;;14.73;14.23;;;;;;;;;;5115813;28;20224;-76
2022/06/09 01:05:14;;;;;;;15.02;14.52;;;;;;;;;;5115801;28;20233;-73
2022/06/09 01:07:42;;;;;;;15.45;14.85;;;;;;;;;;5115682;28;20572;-71
2022/06/09 01:10:09;;;;;;;14.75;14.25;;;;;;;;;;5115568;28;20225;-71
2022/06/09 01:12:37;;;;;;;13.90;13.40;;;;;;;;;;5115639;28;20193;-71
2022/06/09 01:15:08;;;;;;;13.40;13.00;;;;;;;;;;5116424;28;20197;-71
2022/06/09 01:17:44;;;;;;;13.80;13.30;;;;;;;;;;5115373;28;20233;-73
2022/06/09 01:20:17;;;;;;;14.63;14.13;;;;;;;;;;5115875;28;20633;-76
2022/06/09 01:22:54;;;;;;;14.25;13.75;;;;;;;;;;5115475;28;20229;-71
2022/06/09 01:25:45;;;;;;;14.02;13.52;;;;;;;;;;5115443;28;20543;-75
2022/06/09 01:28:32;;;;;;;13.95;13.45;;;;;;;;;;5076485;28;20648;-72
2022/06/09 01:31:01;;;;;;;14.07;13.57;;;;;;;;;;5115218;28;20254;-72
2022/06/09 01:33:31;;;;;;;14.05;13.55;;;;;;;;;;5115252;28;20225;-73
2022/06/09 01:36:05;;;;;;;13.88;13.38;;;;;;;;;;5115195;28;20201;-78
2022/06/09 01:38:44;;;;;;;13.52;13.13;;;;;;;;;;5115548;28;20185;-71
2022/06/09 01:41:11;;;;;;;13.50;13.10;;;;;;;;;;5114654;28;20187;-73
2022/06/09 01:43:38;;;;;;;14.27;13.77;;;;;;;;;;5115376;28;20197;-73
2022/06/09 01:46:08;;;;;;;14.00;13.50;;;;;;;;;;5114962;28;20197;-72
2022/06/09 01:48:35;;;;;;;14.00;13.50;;;;;;;;;;5115003;28;20214;-76
2022/06/09 01:51:05;;;;;;;13.00;12.60;;;;;;;;;;5115119;28;20225;-71
2022/06/09 01:53:34;;;;;;;12.90;12.50;;;;;;;;;;5114820;28;20236;-73
2022/06/09 01:56:03;;;;;;;14.05;13.55;;;;;;;;;;5114843;28;20197;-72
2022/06/09 01:58:32;;;;;;;13.90;13.40;;;;;;;;;;5115049;28;20668;-74
2022/06/09 02:01:00;;;;;;;13.80;13.30;;;;;;;;;;5114683;28;20189;-71
2022/06/09 02:03:31;;;;;;;13.25;12.85;;;;;;;;;;5114612;28;20680;-72
2022/06/09 02:06:00;;;;;;;13.48;13.07;;;;;;;;;;5114972;28;20189;-77
2022/06/09 02:08:29;;;;;;;13.43;13.02;;;;;;;;;;5114513;28;20201;-73
2022/06/09 02:10:56;;;;;;;13.48;13.07;;;;;;;;;;5114763;28;20228;-73
2022/06/09 02:13:26;;;;;;;13.05;12.65;;;;;;;;;;5114478;28;20193;-72
2022/06/09 02:15:55;;;;;;;13.60;13.18;;;;;;;;;;5114475;28;20254;-72
2022/06/09 02:18:23;;;;;;;13.57;13.18;;;;;;;;;;5114203;28;20264;-72
2022/06/09 02:20:54;;;;;;;13.70;13.30;;;;;;;;;;5114267;28;20221;-71
2022/06/09 02:23:21;;;;;;;13.60;13.20;;;;;;;;;;5114310;28;20670;-72
2022/06/09 02:25:48;;;;;;;13.50;13.10;;;;;;;;;;5114172;28;20646;-71
2022/06/09 02:28:15;;;;;;;13.23;12.82;;;;;;;;;;5114548;28;20224;-73
2022/06/09 02:30:42;;;;;;;13.40;13.00;;;;;;;;;;5115121;28;20224;-73
2022/06/09 02:33:09;;;;;;;13.30;12.90;;;;;;;;;;5114077;28;20189;-76
2022/06/09 02:35:37;;;;;;;13.77;13.38;;;;;;;;;;5114028;28;20200;-73
2022/06/09 02:38:05;;;;;;;13.40;13.00;;;;;;;;;;5113922;28;20197;-76
2022/06/09 02:40:32;;;;;;;13.43;13.02;;;;;;;;;;5113974;28;20663;-73
2022/06/09 02:43:00;;;;;;;14.10;13.60;;;;;;;;;;5114113;28;20261;-75
2022/06/09 02:45:28;;;;;;;13.93;13.43;;;;;;;;;;5113887;28;20254;-73
2022/06/09 02:47:55;;;;;;;14.00;13.50;;;;;;;;;;5113808;28;20233;-74
2022/06/09 02:50:22;;;;;;;13.98;13.48;;;;;;;;;;5113627;28;20250;-72
2022/06/09 02:52:49;;;;;;;14.00;13.50;;;;;;;;;;5113199;28;20197;-71
2022/06/09 02:55:17;;;;;;;13.48;13.07;;;;;;;;;;5113917;28;20551;-72
2022/06/09 02:57:44;;;;;;;13.35;12.95;;;;;;;;;;5113552;28;20288;-77
2022/06/09 03:00:14;;;;;;;13.35;12.95;;;;;;;;;;5113505;28;20229;-74
2022/06/09 03:02:41;;;;;;;13.45;13.05;;;;;;;;;;5113496;28;20229;-78
2022/06/09 03:05:08;;;;;;;13.00;12.60;;;;;;;;;;5113474;28;20236;-71
2022/06/09 03:07:35;;;;;;;13.10;12.70;;;;;;;;;;5113688;28;20227;-72
2022/06/09 03:10:02;;;;;;;12.60;12.20;;;;;;;;;;5113298;28;20221;-71
2022/06/09 03:12:31;;;;;;;13.60;13.20;;;;;;;;;;5113268;28;20254;-71
2022/06/09 03:14:58;;;;;;;13.60;13.20;;;;;;;;;;5113295;28;20655;-71
2022/06/09 03:17:25;;;;;;;13.57;13.18;;;;;;;;;;5113053;28;20229;-75
2022/06/09 03:19:52;;;;;;;13.80;13.30;;;;;;;;;;5113198;28;20279;-72
2022/06/09 03:22:19;;;;;;;13.60;13.20;;;;;;;;;;5113505;28;20250;-74
2022/06/09 03:24:46;;;;;;;13.05;12.65;;;;;;;;;;5113441;28;20252;-71
2022/06/09 03:27:13;;;;;;;12.68;12.27;;;;;;;;;;5113088;28;20194;-71
2022/06/09 03:29:41;;;;;;;12.30;11.90;;;;;;;;;;5112911;28;20685;-71
2022/06/09 03:32:08;;;;;;;12.10;11.70;;;;;;;;;;5113042;27;20204;-74
2022/06/09 03:34:36;;;;;;;12.18;11.77;;;;;;;;;;5112955;28;20197;-71
2022/06/09 03:37:03;;;;;;;11.55;11.15;;;;;;;;;;5113219;28;20196;-72
2022/06/09 03:39:30;;;;;;;10.50;10.20;;;;;;;;;;5112844;28;20213;-72
2022/06/09 03:41:57;;;;;;;8.50;8.30;;;;;;;;;;5112815;28;20240;-73
2022/06/09 03:44:24;;;;;;;8.38;8.18;;;;;;;;;;5112784;28;20189;-71
2022/06/09 03:46:52;;;;;;;8.90;8.60;;;;;;;;;;5112709;28;20579;-73
2022/06/09 03:49:19;;;;;;;8.80;8.50;;;;;;;;;;5112709;28;20189;-71
2022/06/09 03:51:46;;;;;;;8.70;8.50;;;;;;;;;;5112599;28;20221;-73
2022/06/09 03:54:14;;;;;;;9.52;9.23;;;;;;;;;;5112902;28;20349;-73
2022/06/09 03:56:41;;;;;;;10.25;9.95;;;;;;;;;;5112595;28;20196;-71
2022/06/09 03:59:08;;;;;;;10.90;10.60;;;;;;;;;;5112512;28;20610;-72
2022/06/09 04:01:35;;;;;;;10.43;10.13;;;;;;;;;;5112573;28;20663;-73
2022/06/09 04:04:04;;;;;;;12.30;11.90;;;;;;;;;;5112329;28;20196;-73
2022/06/09 04:06:31;;;;;;;13.32;12.82;;;;;;;;;;5112442;28;20204;-71
2022/06/09 04:08:58;;;;;;;12.65;12.23;;;;;;;;;;5112496;28;20706;-75
2022/06/09 04:11:25;;;;;;;13.55;13.05;;;;;;;;;;5112346;28;20308;-72
2022/06/09 04:13:52;;;;;;;14.68;14.05;;;;;;;;;;5112466;28;20192;-72
2022/06/09 04:16:22;;;;;;;16.15;15.32;;;;;;;;;;5112338;28;20193;-72
2022/06/09 04:18:49;;;;;;;18.95;17.85;;;;;;;;;;5112234;28;20225;-73
2022/06/09 04:21:18;;;;;;;21.90;20.40;;;;;;;;;;5112409;28;20292;-71
2022/06/09 04:23:45;;;;;;;22.40;20.90;;;;;;;;;;5112276;28;20204;-71
2022/06/09 04:26:14;;;;;;;22.15;20.75;;;;;;;;;;5112636;28;20246;-71
2022/06/09 04:28:41;;;;;;;21.42;20.15;;;;;;;;;;5112561;28;20197;-72
2022/06/09 04:31:09;;;;;;;13.80;13.30;;;;;;;;;;5112479;28;20232;-70
2022/06/09 04:33:35;;;;;;;11.32;10.93;;;;;;;;;;5112262;28;20192;-71
2022/06/09 04:36:03;;;;;;;9.40;9.10;;;;;;;;;;5112147;28;20649;-71
2022/06/09 04:38:31;;;;;;;8.43;8.23;;;;;;;;;;5112190;28;20629;-70
2022/06/09 04:40:58;;;;;;;7.00;6.80;;;;;;;;;;5112165;28;20208;-71
2022/06/09 04:43:25;;;;;;;7.00;6.80;;;;;;;;;;5112149;28;20223;-70
2022/06/09 04:45:53;;;;;;;6.20;6.10;;;;;;;;;;5112425;28;20243;-72
2022/06/09 04:48:20;;;;;;;5.80;5.70;;;;;;;;;;5112415;28;20663;-71
2022/06/09 04:50:47;;;;;;;5.40;5.30;;;;;;;;;;5111990;28;20221;-71
2022/06/09 04:53:14;;;;;;;5.50;5.40;;;;;;;;;;5112057;28;20193;-71
2022/06/09 04:55:43;;;;;;;5.40;5.30;;;;;;;;;;5112043;28;20225;-70
2022/06/09 04:58:11;;;;;;;5.40;5.30;;;;;;;;;;5111935;28;20197;-71
2022/06/09 05:00:38;;;;;;;5.70;5.60;;;;;;;;;;5112022;28;20196;-71
2022/06/09 05:03:05;;;;;;;6.60;6.40;;;;;;;;;;5111972;28;20655;-71
2022/06/09 05:05:33;;;;;;;6.72;6.53;;;;;;;;;;5111904;28;20193;-71
2022/06/09 05:08:00;;;;;;;7.30;7.10;;;;;;;;;;5111955;28;20199;-72
2022/06/09 05:10:27;;;;;;;8.70;8.50;;;;;;;;;;5112642;28;20284;-72
2022/06/09 05:12:56;;;;;;;9.68;9.38;;;;;;;;;;5112239;28;20197;-71
2022/06/09 05:15:23;;;;;;;10.40;10.10;;;;;;;;;;5113816;28;20646;-71
2022/06/09 05:17:51;;;;;;;9.95;9.65;;;;;;;;;;5115564;28;20233;-71
2022/06/09 05:20:19;;;;;;;11.00;10.60;;;;;;;;;;5115505;28;20651;-70
2022/06/09 05:22:46;;;;;;;11.60;11.20;;;;;;;;;;5115426;28;20276;-70
2022/06/09 05:25:13;;;;;;;11.10;10.70;;;;;;;;;;5115478;28;20189;-71
2022/06/09 05:27:40;;;;;;;11.88;11.48;;;;;;;;;;5115322;28;20204;-73
2022/06/09 05:30:12;;;;;;;11.90;11.50;;;;;;;;;;5115664;28;20201;-71
2022/06/09 05:32:39;;;;;;;13.65;13.05;;;;;;;;;;5115233;28;20227;-71
2022/06/09 05:35:07;;;;;;;14.65;13.95;;;;;;;;;;5115257;28;20731;-71
2022/06/09 05:45:44;;;;;;;10.05;9.73;;;;;;;;;;5115148;28;20310;-72
2022/06/09 05:48:11;;;;;;;9.57;9.27;;;;;;;;;;5114891;28;20646;-72
2022/06/09 05:50:38;;;;;;;10.90;10.50;;;;;;;;;;5114873;28;20197;-72
2022/06/09 05:53:05;;;;;;;11.60;11.20;;;;;;;;;;5114883;28;20193;-74
2022/06/09 05:55:32;;;;;;;11.30;10.90;;;;;;;;;;5114861;28;20662;-73
2022/06/09 05:57:59;;;;;;;14.43;13.82;;;;;;;;;;5114795;28;20284;-72
2022/06/09 06:00:26;;;;;;;15.60;14.90;;;;;;;;;;5115046;28;20254;-73
2022/06/09 06:02:54;;;;;;;14.10;13.50;;;;;;;;;;5114701;28;20197;-74
2022/06/09 06:08:06;;;;;;;13.73;13.13;;;;;;;;;;5115050;28;20234;-74
2022/06/09 06:10:33;;;;;;;14.80;14.10;;;;;;;;;;5114747;28;20189;-74
2022/06/09 06:13:01;;;;;;;15.32;14.60;;;;;;;;;;5114548;28;20192;-74
2022/06/09 06:15:28;;;;;;;15.90;15.10;;;;;;;;;;5114473;28;20190;-74
2022/06/09 06:17:56;;;;;;;14.10;13.50;;;;;;;;;;5114229;28;20315;-75
2022/06/09 06:20:24;;;;;;;13.40;12.90;;;;;;;;;;5114359;28;20193;-74
2022/06/09 06:22:51;;;;;;;14.00;13.50;;;;;;;;;;5114244;28;20193;-74
2022/06/09 06:25:18;;;;;;;16.00;15.30;;;;;;;;;;5114253;28;20191;-75
2022/06/09 06:27:44;;;;;;;16.25;15.52;;;;;;;;;;5114230;28;20652;-75
2022/06/09 06:30:12;;;;;;;18.40;17.40;;;;;;;;;;5114610;28;20659;-78
2022/06/09 06:32:39;;;;;;;18.45;17.45;;;;;;;;;;5114468;28;20675;-78
2022/06/09 06:35:08;;;;;;;18.85;17.75;;;;;;;;;;5116974;28;20246;-79
2022/06/09 06:37:35;;;;;;;18.55;17.55;;;;;;;;;;5116969;28;20197;-77
2022/06/09 06:40:02;;;;;;;17.48;16.58;;;;;;;;;;5122153;28;20211;-80
2022/06/09 06:42:29;;;;;;;15.55;14.85;;;;;;;;;;5117670;28;20204;-79
2022/06/09 06:44:56;;;;;;;16.45;15.65;;;;;;;;;;5117031;28;20197;-78
2022/06/09 06:47:24;;;;;;;17.60;16.70;;;;;;;;;;5115883;28;20271;-80
2022/06/09 06:49:51;;;;;;;16.98;16.17;;;;;;;;;;5118304;28;20193;-80
2022/06/09 06:52:20;;;;;;;17.00;16.20;;;;;;;;;;5115824;28;20240;-79
2022/06/09 06:54:47;;;;;;;17.55;16.70;;;;;;;;;;5113875;28;20200;-79
2022/06/09 06:57:14;;;;;;;16.92;16.13;;;;;;;;;;5114696;28;20215;-81
2022/06/09 06:59:41;;;;;;;16.77;15.98;;;;;;;;;;5114148;28;20563;-80
2022/06/09 07:02:08;;;;;;;18.25;17.30;;;;;;;;;;5113509;28;20200;-79
2022/06/09 07:04:35;;;;;;;17.25;16.45;;;;;;;;;;5113599;28;20280;-80
2022/06/09 07:07:02;;;;;;;19.58;18.58;;;;;;;;;;5113519;28;20200;-80
2022/06/09 07:09:31;;;;;;;18.70;17.70;;;;;;;;;;5113724;28;20223;-82
2022/06/09 07:11:58;;;;;;;18.70;17.80;;;;;;;;;;5113386;28;20235;-79
2022/06/09 07:14:25;;;;;;;17.75;16.95;;;;;;;;;;5113542;28;20224;-80
2022/06/09 07:16:52;;;;;;;17.75;16.95;;;;;;;;;;5113614;28;20193;-78
2022/06/09 07:19:19;;;;;;;17.50;16.70;;;;;;;;;;5113031;28;20236;-79
2022/06/09 07:21:46;;;;;;;16.13;15.43;;;;;;;;;;5113154;28;20649;-79
2022/06/09 07:24:14;;;;;;;16.20;15.50;;;;;;;;;;5113144;28;20283;-77
2022/06/09 07:26:42;;;;;;;17.92;17.02;;;;;;;;;;5113012;28;20288;-77
2022/06/09 07:29:09;;;;;;;17.70;16.85;;;;;;;;;;5113052;28;20749;-76
2022/06/09 07:31:36;;;;;;;18.10;17.20;;;;;;;;;;5112932;28;20308;-76
2022/06/09 07:34:04;;;;;;;16.90;16.10;;;;;;;;;;5112964;28;20199;-78
2022/06/09 07:36:31;;;;;;;17.40;16.60;;;;;;;;;;5112891;28;20193;-77
2022/06/09 07:38:58;;;;;;;17.25;16.45;;;;;;;;;;5112401;28;20193;-80
2022/06/09 07:41:25;;;;;;;19.30;18.30;;;;;;;;;;5112832;28;20193;-78
2022/06/09 07:43:53;;;;;;;19.60;18.60;;;;;;;;;;5112753;27;20207;-76
2022/06/09 07:46:21;;;;;;;17.95;17.05;;;;;;;;;;5113062;28;20275;-77
2022/06/09 07:48:48;;;;;;;17.27;16.48;;;;;;;;;;5112691;28;20200;-79
2022/06/09 07:51:15;;;;;;;18.73;17.73;;;;;;;;;;5112695;28;20196;-82
2022/06/09 07:53:42;;;;;;;20.65;19.45;;;;;;;;;;5112652;28;20554;-78
2022/06/09 07:56:09;;;;;;;19.75;18.65;;;;;;;;;;5112637;28;20200;-79
2022/06/09 07:58:36;;;;;;;18.75;17.75;;;;;;;;;;5112872;28;20659;-78
2022/06/09 08:01:05;;;;;;;19.10;18.10;;;;;;;;;;5113220;28;20550;-77
2022/06/09 08:03:32;;;;;;;18.63;17.63;;;;;;;;;;5112803;28;20189;-79
2022/06/09 08:05:59;;;;;;;19.23;18.23;;;;;;;;;;5112539;28;20197;-78
2022/06/09 08:08:26;;;;;;;19.95;18.85;;;;;;;;;;5112483;28;20659;-79
2022/06/09 08:10:53;;;;;;;19.70;18.60;;;;;;;;;;5112441;28;20197;-81
2022/06/09 08:13:20;;;;;;;18.90;17.90;;;;;;;;;;5112332;28;20229;-80
2022/06/09 08:15:47;;;;;;;21.10;19.90;;;;;;;;;;5112419;28;20201;-80
2022/06/09 08:18:15;;;;;;;20.60;19.40;;;;;;;;;;5112217;28;20663;-80
2022/06/09 08:20:43;;;;;;;18.88;17.88;;;;;;;;;;5113178;28;20203;-82
2022/06/09 08:23:11;;;;;;;21.30;20.10;;;;;;;;;;5112416;28;20201;-82
2022/06/09 08:25:40;;;;;;;19.80;18.70;;;;;;;;;;5112308;28;20280;-80
2022/06/09 08:28:07;;;;;;;20.20;19.02;;;;;;;;;;5112446;28;20231;-84
2022/06/09 08:30:35;;;;;;;19.80;18.70;;;;;;;;;;5112309;28;20193;-79
2022/06/09 08:33:02;;;;;;;21.67;20.42;;;;;;;;;;5112410;28;20232;-79
2022/06/09 08:35:31;;;;;;;20.83;19.63;;;;;;;;;;5112255;28;20280;-81
2022/06/09 08:37:58;;;;;;;22.35;21.05;;;;;;;;;;5112736;28;20197;-80
2022/06/09 08:40:34;;;;;;;23.33;21.92;;;;;;;;;;5112178;28;20197;-80
2022/06/09 08:43:07;;;;;;;22.13;20.83;;;;;;;;;;5112253;28;20750;-82
2022/06/09 08:45:35;;;;;;;22.77;21.35;;;;;;;;;;5112197;28;20569;-79
2022/06/09 08:48:03;;;;;;;22.55;21.15;;;;;;;;;;5112795;28;20215;-84
2022/06/09 08:50:33;;;;;;;22.70;21.30;;;;;;;;;;5114835;28;20568;-80
2022/06/09 08:53:04;;;;;;;23.25;21.85;;;;;;;;;;5116795;28;20229;-78
2022/06/09 08:55:37;;;;;;;22.92;21.52;;;;;;;;;;5116116;28;20225;-80
2022/06/09 08:58:06;;;;;;;21.73;20.42;;;;;;;;;;5116206;28;20228;-78
2022/06/09 09:00:36;;;;;;;21.70;20.40;;;;;;;;;;5116353;28;20203;-81
2022/06/09 09:03:07;;;;;;;21.75;20.45;;;;;;;;;;5115992;28;20708;-79
2022/06/09 09:05:39;;;;;;;21.60;20.30;;;;;;;;;;5116031;28;20185;-79
2022/06/09 09:08:07;;;;;;;22.10;20.80;;;;;;;;;;5116461;28;20224;-79
2022/06/09 09:10:41;;;;;;;22.50;21.20;;;;;;;;;;5116242;28;20189;-80
2022/06/09 09:13:15;;;;;;;22.10;20.80;;;;;;;;;;5118128;28;20216;-78
2022/06/09 09:15:46;;;;;;;22.08;20.77;;;;;;;;;;5116437;28;20222;-78
2022/06/09 09:18:21;;;;;;;22.38;21.08;;;;;;;;;;5116049;28;20706;-78
2022/06/09 09:20:58;;;;;;;22.42;21.13;;;;;;;;;;5116052;28;20193;-79
2022/06/09 09:23:27;;;;;;;22.70;21.40;;;;;;;;;;5116476;28;20646;-80
2022/06/09 09:25:56;;;;;;;22.77;21.38;;;;;;;;;;5116123;28;20193;-79
2022/06/09 09:28:27;;;;;;;22.60;21.20;;;;;;;;;;5117871;28;20193;-79
2022/06/09 09:31:01;;;;;;;22.38;20.98;;;;;;;;;;5115496;28;20204;-81
2022/06/09 09:33:29;;;;;;;22.20;20.90;;;;;;;;;;5115567;28;20212;-77
2022/06/09 09:36:01;;;;;;;22.77;21.38;;;;;;;;;;5115866;28;20197;-81
2022/06/09 09:38:35;;;;;;;22.23;20.85;;;;;;;;;;5115497;28;20181;-77
2022/06/09 09:41:03;;;;;;;22.00;20.70;;;;;;;;;;5115915;28;20550;-76
2022/06/09 09:43:35;;;;;;;22.55;21.15;;;;;;;;;;5115237;28;20659;-77
2022/06/09 09:46:02;;;;;;;22.65;21.30;;;;;;;;;;5115163;28;20189;-77
2022/06/09 09:48:32;;;;;;;22.63;21.27;;;;;;;;;;5115259;28;20270;-78
2022/06/09 09:51:01;;;;;;;23.15;21.70;;;;;;;;;;5114956;28;20189;-79
2022/06/09 09:53:30;;;;;;;22.73;21.42;;;;;;;;;;5115188;28;20247;-77
2022/06/09 09:55:57;;;;;;;23.60;22.20;;;;;;;;;;5114848;28;20587;-76
2022/06/09 09:58:27;;;;;;;22.30;21.00;;;;;;;;;;5114881;28;20193;-77
2022/06/09 10:00:55;;;;;;;23.50;22.10;;;;;;;;;;5114612;28;20276;-76
2022/06/09 10:09:06;;;;;;;22.90;21.50;;;;;;;;;;5115315;28;20177;-77
2022/06/09 10:14:34;;;;;;;24.58;22.98;;;;;;;;;;5114968;28;20688;-75
2022/06/09 10:17:02;;;;;;;22.75;21.35;;;;;;;;;;5114630;28;20258;-77
2022/06/09 10:19:30;;;;;;;23.35;21.95;;;;;;;;;;5114456;28;20185;-76
2022/06/09 10:22:00;;;;;;;23.02;21.63;;;;;;;;;;5114609;27;20189;-74
2022/06/09 10:24:30;;;;;;;23.23;21.77;;;;;;;;;;5114249;28;20197;-76
2022/06/09 10:26:57;;;;;;;24.15;22.65;;;;;;;;;;5114244;28;20194;-75
2022/06/09 10:29:28;;;;;;;23.48;21.98;;;;;;;;;;5114397;28;20193;-75
2022/06/09 10:31:58;;;;;;;22.48;21.08;;;;;;;;;;5114100;28;20232;-75
2022/06/09 10:34:34;;;;;;;23.00;21.60;;;;;;;;;;5114321;28;20725;-74
2022/06/09 10:37:04;;;;;;;23.50;22.10;;;;;;;;;;5114119;28;20685;-75
2022/06/09 10:39:34;;;;;;;23.45;22.05;;;;;;;;;;5114087;28;20193;-74
2022/06/09 10:42:04;;;;;;;24.10;22.60;;;;;;;;;;5113931;28;20681;-76
2022/06/09 10:44:34;;;;;;;24.10;22.70;;;;;;;;;;5113919;28;20193;-75
2022/06/09 10:55:37;;;;;;;23.08;21.58;;;;;;;;;;5114099;28;20234;-76
2022/06/09 10:58:08;;;;;;;23.55;21.95;;;;;;;;;;5113626;28;20197;-76
2022/06/09 11:00:37;;;;;;;22.67;21.17;;;;;;;;;;5113669;28;20189;-76
2022/06/09 11:03:11;;;;;;;22.88;21.38;;;;;;;;;;5113523;28;20197;-76
2022/06/09 11:05:46;;;;;;;22.63;21.13;;;;;;;;;;5113864;28;20269;-76
2022/06/09 11:08:22;;;;;;;23.05;21.55;;;;;;;;;;5113790;28;20185;-77
2022/06/09 11:10:54;;;;;;;23.30;21.80;;;;;;;;;;5113469;28;20191;-76
2022/06/09 11:13:34;;;;;;;23.35;21.85;;;;;;;;;;5112581;28;20270;-76
2022/06/09 11:16:07;;;;;;;22.35;20.88;;;;;;;;;;5113390;28;20189;-77
2022/06/09 11:18:37;;;;;;;22.40;21.00;;;;;;;;;;5113205;28;20710;-77
2022/06/09 11:21:09;;;;;;;23.05;21.55;;;;;;;;;;5113231;28;20650;-76
2022/06/09 11:23:44;;;;;;;23.05;21.55;;;;;;;;;;5113240;28;20192;-76
2022/06/09 11:26:16;;;;;;;22.50;21.00;;;;;;;;;;5113185;28;20189;-76
2022/06/09 11:28:49;;;;;;;23.40;21.90;;;;;;;;;;5114195;28;20613;-77
2022/06/09 11:31:33;;;;;;;23.25;21.75;;;;;;;;;;5113131;28;20189;-77
2022/06/09 11:34:06;;;;;;;24.08;22.58;;;;;;;;;;5106485;28;20264;-77
2022/06/09 11:36:37;;;;;;;24.13;22.52;;;;;;;;;;5113373;28;20239;-77
2022/06/09 11:39:20;;;;;;;23.35;21.85;;;;;;;;;;5113038;28;20200;-77
2022/06/09 11:41:52;;;;;;;23.17;21.67;;;;;;;;;;5113276;28;20181;-76
2022/06/09 11:44:25;;;;;;;23.92;22.42;;;;;;;;;;5112921;28;20696;-77
2022/06/09 11:46:53;;;;;;;22.30;20.80;;;;;;;;;;5112836;28;20663;-77
2022/06/09 11:49:22;;;;;;;22.45;20.95;;;;;;;;;;5113004;28;20201;-77
2022/06/09 11:51:50;;;;;;;22.67;21.17;;;;;;;;;;5113027;28;20201;-77
2022/06/09 11:54:37;;;;;;;22.67;21.17;;;;;;;;;;5113089;28;20236;-78
2022/06/09 11:57:20;;;;;;;22.88;21.38;;;;;;;;;;5112945;28;20191;-77
2022/06/09 11:59:54;;;;;;;22.38;20.98;;;;;;;;;;5112974;28;20191;-77
2022/06/09 12:02:31;;;;;;;22.27;20.88;;;;;;;;;;5112867;28;20261;-77
2022/06/09 12:05:10;;;;;;;22.67;21.27;;;;;;;;;;5112717;28;20217;-80
2022/06/09 12:08:00;;;;;;;22.25;20.88;;;;;;;;;;5113350;28;20617;-79
2022/06/09 12:10:35;;;;;;;22.25;20.95;;;;;;;;;;5112786;28;20193;-78
2022/06/09 12:13:06;;;;;;;17.88;16.88;;;;;;;;;;5112489;28;20598;-77
2022/06/09 12:15:35;;;;;;;20.77;19.48;;;;;;;;;;5112788;28;20189;-77
2022/06/09 12:18:07;;;;;;;20.45;19.25;;;;;;;;;;5112211;28;20268;-78
2022/06/09 12:20:36;;;;;;;21.38;20.08;;;;;;;;;;5112532;28;20189;-77
2022/06/09 12:23:21;;;;;;;20.42;19.23;;;;;;;;;;5112354;28;20724;-77
2022/06/09 12:26:19;;;;;;;21.83;20.52;;;;;;;;;;5117628;28;20250;-79
2022/06/09 12:28:47;;;;;;;22.75;21.35;;;;;;;;;;5117724;28;20570;-77
2022/06/09 12:31:16;;;;;;;22.35;20.95;;;;;;;;;;5117358;28;20280;-78
2022/06/09 12:33:46;;;;;;;22.20;20.80;;;;;;;;;;5116384;28;20305;-78
2022/06/09 12:36:13;;;;;;;23.05;21.60;;;;;;;;;;5117008;28;20640;-78
2022/06/09 12:38:42;;;;;;;22.95;21.45;;;;;;;;;;5116646;28;20240;-81
2022/06/09 12:41:13;;;;;;;23.00;21.50;;;;;;;;;;5116903;28;20193;-81
2022/06/09 12:43:42;;;;;;;22.67;21.17;;;;;;;;;;5116517;28;20196;-80
2022/06/09 12:46:23;;;;;;;22.98;21.48;;;;;;;;;;5116661;28;20196;-80
2022/06/09 12:48:53;;;;;;;22.65;21.20;;;;;;;;;;5116712;28;20189;-80
2022/06/09 12:51:22;;;;;;;22.55;21.05;;;;;;;;;;5116288;28;20192;-80
2022/06/09 12:53:53;;;;;;;22.55;21.15;;;;;;;;;;5116290;28;20228;-80
2022/06/09 12:56:25;;;;;;;24.23;22.73;;;;;;;;;;5116091;28;20191;-80
2022/06/09 12:58:52;;;;;;;24.00;22.50;;;;;;;;;;5116341;28;20189;-80
2022/06/09 13:01:20;;;;;;;22.45;20.95;;;;;;;;;;5115937;28;20195;-80
2022/06/09 13:03:49;;;;;;;23.02;21.52;;;;;;;;;;5116024;28;20197;-79
2022/06/09 13:06:24;;;;;;;23.48;21.98;;;;;;;;;;5115787;28;20284;-80
2022/06/09 13:08:53;;;;;;;22.98;21.48;;;;;;;;;;5115917;28;20193;-80
2022/06/09 13:12:50;;;;;;;23.27;21.67;;;;;;;;;;5115987;28;20288;-79
2022/06/09 13:14:12;;;;;;;22.92;21.33;;;;;;;;;;5116450;28;20297;-79
2022/06/09 13:16:43;;;;;;;24.20;22.60;;;;;;;;;;5115988;28;20567;-80
2022/06/09 13:19:11;;;;;;;25.95;24.15;;;;;;;;;;5115517;28;20224;-81
2022/06/09 13:21:40;;;;;;;25.48;23.67;;;;;;;;;;5115765;28;20276;-80
2022/06/09 13:24:08;;;;;;;25.65;23.85;;;;;;;;;;5115533;28;20649;-80
2022/06/09 13:26:39;;;;;;;25.83;23.98;;;;;;;;;;5115398;28;20189;-81
2022/06/09 13:29:08;;;;;;;23.67;21.98;;;;;;;;;;5115551;28;20280;-81
2022/06/09 13:31:37;;;;;;;23.20;21.60;;;;;;;;;;5115294;28;20284;-81
2022/06/09 13:34:06;;;;;;;22.52;20.92;;;;;;;;;;5115890;28;20606;-81
2022/06/09 13:36:34;;;;;;;22.92;21.23;;;;;;;;;;5114533;28;20193;-80
2022/06/09 13:39:15;;;;;;;23.60;21.90;;;;;;;;;;5115566;28;20247;-80
2022/06/09 13:41:44;;;;;;;22.88;21.27;;;;;;;;;;5115025;28;20200;-81
2022/06/09 13:44:16;;;;;;;22.73;21.13;;;;;;;;;;5115141;28;20193;-80
2022/06/09 13:46:56;;;;;;;23.77;22.17;;;;;;;;;;5115121;28;20272;-81
2022/06/09 13:49:24;;;;;;;22.90;21.30;;;;;;;;;;5115070;28;20217;-80
2022/06/09 13:51:59;;;;;;;23.48;21.88;;;;;;;;;;5114906;28;20189;-81
2022/06/09 13:54:28;;;;;;;23.35;21.75;;;;;;;;;;5114851;28;20232;-79
2022/06/09 13:56:57;;;;;;;23.90;22.20;;;;;;;;;;5114837;28;20280;-79
2022/06/09 13:59:25;;;;;;;24.75;22.95;;;;;;;;;;5114840;28;20199;-80
2022/06/09 14:01:53;;;;;;;26.83;25.02;;;;;;;;;;5114842;28;20193;-81
2022/06/09 14:04:21;;;;;;;23.58;21.98;;;;;;;;;;5114706;28;20276;-81
2022/06/09 14:06:49;;;;;;;24.10;22.40;;;;;;;;;;5115213;28;20229;-80
2022/06/09 14:09:16;;;;;;;23.85;22.15;;;;;;;;;;5114598;28;20189;-82
2022/06/09 14:11:44;;;;;;;23.67;21.98;;;;;;;;;;5114651;28;20197;-81
2022/06/09 14:14:12;;;;;;;23.38;21.67;;;;;;;;;;5114422;28;20224;-80
2022/06/09 14:16:42;;;;;;;22.65;21.05;;;;;;;;;;5114487;28;20200;-81
2022/06/09 14:19:09;;;;;;;22.38;20.88;;;;;;;;;;5114605;28;20221;-80
2022/06/09 14:21:36;;;;;;;22.58;21.08;;;;;;;;;;5114987;28;20234;-80
2022/06/09 14:24:05;;;;;;;22.55;21.15;;;;;;;;;;5114342;28;20189;-81
2022/06/09 14:26:34;;;;;;;22.67;21.25;;;;;;;;;;5114334;28;20272;-82
2022/06/09 14:29:01;;;;;;;22.58;21.08;;;;;;;;;;5114385;28;20250;-82
2022/06/09 14:31:30;;;;;;;22.00;20.40;;;;;;;;;;5114234;28;20201;-81
2022/06/09 14:33:58;;;;;;;21.25;19.75;;;;;;;;;;5114147;28;20267;-85
2022/06/09 14:36:26;;;;;;;22.15;20.75;;;;;;;;;;5114192;28;20246;-83
2022/06/09 14:38:54;;;;;;;22.55;21.05;;;;;;;;;;5115039;28;20606;-77
2022/06/09 14:41:21;;;;;;;21.85;20.35;;;;;;;;;;5114359;27;20193;-83
2022/06/09 14:43:49;;;;;;;21.98;20.58;;;;;;;;;;5114023;28;20237;-76
2022/06/09 14:46:19;;;;;;;22.30;20.85;;;;;;;;;;5114728;28;20280;-81
2022/06/09 14:48:48;;;;;;;21.98;20.58;;;;;;;;;;5113500;28;20211;-79
2022/06/09 14:51:15;;;;;;;22.38;20.98;;;;;;;;;;5113954;28;20198;-83
2022/06/09 14:53:42;;;;;;;22.17;20.77;;;;;;;;;;5113700;28;20229;-81
2022/06/09 14:56:09;;;;;;;22.35;20.95;;;;;;;;;;5113780;28;20193;-82
2022/06/09 14:58:36;;;;;;;22.38;20.98;;;;;;;;;;5113947;28;20208;-80